createdAt,value
2022-11-19T00:01:22.514Z,97271.28
2022-11-19T00:03:52.630Z,97268.84
2022-11-19T00:06:22.601Z,97271.81
2022-11-19T00:08:49.418Z,97271.69
2022-11-19T00:11:41.828Z,97274.38
2022-11-19T00:14:13.436Z,97275.59
2022-11-19T00:16:40.787Z,97251.16
2022-11-19T00:19:07.592Z,97272.78
2022-11-19T00:21:34.108Z,97284.28
2022-11-19T00:24:00.768Z,97276.56
2022-11-19T00:26:27.618Z,97280.16
2022-11-19T00:28:55.000Z,97284.69
2022-11-19T00:31:21.757Z,97282.03
2022-11-19T00:33:50.509Z,97278.72
2022-11-19T00:36:17.632Z,97286.53
2022-11-19T00:38:44.136Z,97282.13
2022-11-19T00:41:11.014Z,97281.91
2022-11-19T00:43:46.858Z,97289.84
2022-11-19T00:46:27.937Z,97276.16
2022-11-19T00:48:56.152Z,97284.69
2022-11-19T00:51:24.016Z,97282.19
2022-11-19T00:53:51.003Z,97281.16
2022-11-19T00:56:19.879Z,97276.66
2022-11-19T00:58:48.003Z,97270.47
2022-11-19T01:01:16.225Z,97273.34
2022-11-19T01:03:45.624Z,97273.91
2022-11-19T01:06:17.798Z,97272.44
2022-11-19T01:08:46.095Z,97268.03
2022-11-19T01:11:22.062Z,97277.72
2022-11-19T01:13:49.067Z,97240.75
2022-11-19T01:16:25.335Z,97280.72
2022-11-19T01:18:52.809Z,97279.66
2022-11-19T01:21:23.793Z,97278.41
2022-11-19T01:23:50.765Z,97278.19
2022-11-19T01:26:17.894Z,97277.72
2022-11-19T01:28:45.016Z,97279.81
2022-11-19T01:31:23.881Z,97283.03
2022-11-19T01:33:50.700Z,97284.22
2022-11-19T01:36:23.413Z,97274.50
2022-11-19T01:38:51.079Z,97275.69
2022-11-19T01:41:30.271Z,97278.41
2022-11-19T01:43:58.964Z,97281.44
2022-11-19T01:46:28.287Z,97286.28
2022-11-19T01:49:01.611Z,97275.91
2022-11-19T01:51:46.583Z,97279.59
2022-11-19T01:54:21.623Z,97276.34
2022-11-19T01:56:48.148Z,97279.66
2022-11-19T01:59:18.037Z,97280.47
2022-11-19T02:01:46.422Z,97290.13
2022-11-19T02:04:14.991Z,97276.47
2022-11-19T02:06:42.430Z,97288.25
2022-11-19T02:09:08.934Z,97274.88
2022-11-19T02:11:53.762Z,97290.00
2022-11-19T02:14:42.256Z,97288.03
2022-11-19T02:17:20.739Z,97291.06
2022-11-19T02:20:33.137Z,97291.78
2022-11-19T02:23:17.964Z,97232.94
2022-11-19T02:25:47.343Z,97294.81
2022-11-19T02:28:34.771Z,97300.44
2022-11-19T02:31:24.003Z,97298.84
2022-11-19T02:33:55.608Z,97287.44
2022-11-19T02:36:26.524Z,97289.03
2022-11-19T02:39:17.449Z,97289.19
2022-11-19T02:41:52.667Z,97291.47
2022-11-19T02:44:43.987Z,97281.75
2022-11-19T02:47:15.988Z,97231.34
2022-11-19T02:49:47.093Z,97288.59
2022-11-19T02:52:18.005Z,97285.38
2022-11-19T02:54:44.520Z,97269.72
2022-11-19T02:57:13.091Z,97274.56
2022-11-19T03:00:05.868Z,97287.50
2022-11-19T03:02:55.675Z,97281.47
2022-11-19T03:05:27.213Z,97289.94
2022-11-19T03:07:53.853Z,97284.72
2022-11-19T03:10:23.494Z,97283.75
2022-11-19T03:12:55.068Z,97278.56
2022-11-19T03:16:05.708Z,97277.56
2022-11-19T03:18:39.216Z,97278.00
2022-11-19T03:21:19.254Z,97280.88
2022-11-19T03:24:00.918Z,97293.47
2022-11-19T03:26:46.270Z,97294.63
2022-11-19T03:29:14.736Z,97304.88
2022-11-19T03:31:47.724Z,97304.88
2022-11-19T03:34:17.781Z,97303.25
2022-11-19T03:36:47.491Z,97307.28
2022-11-19T03:39:17.610Z,97304.88
2022-11-19T03:41:48.256Z,97298.31
2022-11-19T03:44:33.085Z,97302.81
2022-11-19T03:47:07.206Z,97309.59
2022-11-19T03:49:37.815Z,97315.19
2022-11-19T03:52:12.714Z,97309.50
2022-11-19T03:54:40.297Z,97319.28
2022-11-19T03:57:09.304Z,97313.84
2022-11-19T03:59:35.930Z,97319.91
2022-11-19T04:02:08.118Z,97302.66
2022-11-19T04:04:37.600Z,97318.41
2022-11-19T04:07:11.070Z,97316.34
2022-11-19T04:09:39.361Z,97317.06
2022-11-19T04:12:08.032Z,97318.72
2022-11-19T04:14:34.504Z,97317.88
2022-11-19T04:17:01.111Z,97323.56
2022-11-19T04:19:27.533Z,97327.38
2022-11-19T04:21:53.981Z,97328.56
2022-11-19T04:24:20.503Z,97322.78
2022-11-19T04:26:46.986Z,97320.63
2022-11-19T04:29:13.521Z,97326.56
2022-11-19T04:31:40.016Z,97307.66
2022-11-19T04:34:06.633Z,97278.09
2022-11-19T04:36:33.163Z,97324.06
2022-11-19T04:38:59.701Z,97326.25
2022-11-19T04:41:26.348Z,97326.63
2022-11-19T04:43:52.803Z,97317.63
2022-11-19T04:46:19.225Z,97319.56
2022-11-19T04:48:45.653Z,97330.75
2022-11-19T04:51:12.140Z,97332.38
2022-11-19T04:53:38.688Z,97324.66
2022-11-19T04:56:05.882Z,97331.13
2022-11-19T04:58:32.336Z,97318.97
2022-11-19T05:00:58.914Z,97336.06
2022-11-19T05:03:25.374Z,97335.47
2022-11-19T05:05:51.937Z,97321.06
2022-11-19T05:08:18.553Z,97303.38
2022-11-19T05:10:45.273Z,97310.53
2022-11-19T05:13:11.710Z,97319.56
2022-11-19T05:15:38.193Z,97331.81
2022-11-19T05:18:04.900Z,97332.81
2022-11-19T05:20:31.352Z,97328.72
2022-11-19T05:22:57.987Z,97323.16
2022-11-19T05:25:24.548Z,97323.41
2022-11-19T05:27:50.929Z,97321.34
2022-11-19T05:30:17.562Z,97328.25
2022-11-19T05:32:43.990Z,97320.75
2022-11-19T05:35:10.589Z,97303.19
2022-11-19T05:37:36.995Z,97328.72
2022-11-19T05:40:03.959Z,97325.00
2022-11-19T05:42:30.458Z,97326.84
2022-11-19T05:44:56.893Z,97333.63
2022-11-19T05:47:23.490Z,97333.53
2022-11-19T05:49:49.991Z,97340.09
2022-11-19T05:52:16.410Z,97336.06
2022-11-19T05:54:42.886Z,97331.94
2022-11-19T05:57:09.288Z,97343.78
2022-11-19T05:59:42.253Z,97335.59
2022-11-19T06:02:10.267Z,97344.63
2022-11-19T06:04:36.682Z,97342.53
2022-11-19T06:07:03.135Z,97342.75
2022-11-19T06:09:30.896Z,97306.94
2022-11-19T06:11:57.464Z,97336.66
2022-11-19T06:14:25.402Z,97338.25
2022-11-19T06:16:54.426Z,97328.72
2022-11-19T06:19:21.728Z,97331.22
2022-11-19T06:21:48.547Z,97338.25
2022-11-19T06:24:15.580Z,97327.91
2022-11-19T06:26:42.976Z,97341.97
2022-11-19T06:29:10.562Z,97332.75
2022-11-19T06:31:37.065Z,97331.94
2022-11-19T06:34:03.519Z,97341.34
2022-11-19T06:36:37.335Z,97343.34
2022-11-19T06:39:05.763Z,97345.41
2022-11-19T06:41:32.229Z,97335.63
2022-11-19T06:43:58.628Z,97341.44
2022-11-19T06:46:25.194Z,97350.22
2022-11-19T06:48:51.637Z,97353.22
2022-11-19T06:51:18.084Z,97361.53
2022-11-19T06:53:44.488Z,97354.47
2022-11-19T06:56:10.975Z,97360.38
2022-11-19T06:58:37.472Z,97359.31
2022-11-19T07:01:04.183Z,97357.34
2022-11-19T07:03:30.684Z,97366.84
2022-11-19T07:05:59.881Z,97369.50
2022-11-19T07:08:27.024Z,97362.22
2022-11-19T07:10:54.386Z,97373.16
2022-11-19T07:13:20.812Z,97371.56
2022-11-19T07:15:47.284Z,97373.97
2022-11-19T07:18:14.321Z,97367.28
2022-11-19T07:20:41.365Z,97369.94
2022-11-19T07:23:10.942Z,97373.78
2022-11-19T07:25:37.902Z,97369.72
2022-11-19T07:28:04.621Z,97370.38
2022-11-19T07:30:31.377Z,97369.94
2022-11-19T07:32:58.213Z,97370.97
2022-11-19T07:35:24.841Z,97378.47
2022-11-19T07:37:51.405Z,97380.91
2022-11-19T07:40:17.889Z,97380.53
2022-11-19T07:42:50.264Z,97388.28
2022-11-19T07:45:18.820Z,97388.28
2022-11-19T07:47:45.370Z,97384.97
2022-11-19T07:50:12.287Z,97396.00
2022-11-19T07:52:38.779Z,97398.06
2022-11-19T07:55:06.289Z,97401.06
2022-11-19T07:57:32.799Z,97409.84
2022-11-19T07:59:59.225Z,97406.53
2022-11-19T08:02:25.958Z,97396.88
2022-11-19T08:04:52.371Z,97409.03
2022-11-19T08:07:18.844Z,97408.31
2022-11-19T08:09:45.402Z,97409.13
2022-11-19T08:12:11.869Z,97415.22
2022-11-19T08:14:38.258Z,97411.34
2022-11-19T08:17:23.389Z,97423.53
2022-11-19T08:19:49.797Z,97416.19
2022-11-19T08:22:16.198Z,97413.16
2022-11-19T08:24:42.716Z,97422.13
2022-11-19T08:27:09.128Z,97424.59
2022-11-19T08:29:35.547Z,97428.19
2022-11-19T08:32:01.934Z,97427.38
2022-11-19T08:34:28.501Z,97427.38
2022-11-19T08:36:54.948Z,97426.56
2022-11-19T08:39:21.372Z,97431.56
2022-11-19T08:42:06.525Z,97432.84
2022-11-19T08:44:32.959Z,97428.00
2022-11-19T08:46:59.342Z,97427.44
2022-11-19T08:49:25.756Z,97424.53
2022-11-19T08:51:52.420Z,97424.28
2022-11-19T08:54:19.239Z,97430.56
2022-11-19T08:56:45.906Z,97434.00
2022-11-19T08:59:12.325Z,97443.78
2022-11-19T09:01:39.555Z,97439.00
2022-11-19T09:04:06.047Z,97435.25
2022-11-19T09:06:35.705Z,97428.69
2022-11-19T09:09:03.683Z,97437.63
2022-11-19T09:11:30.740Z,97447.50
2022-11-19T09:13:58.129Z,97438.81
2022-11-19T09:16:24.742Z,97443.53
2022-11-19T09:18:51.203Z,97454.81
2022-11-19T09:21:17.706Z,97453.03
2022-11-19T09:23:44.186Z,97471.41
2022-11-19T09:26:15.796Z,97461.25
2022-11-19T09:28:43.335Z,97464.19
2022-11-19T09:31:16.189Z,97474.78
2022-11-19T09:33:45.734Z,97477.09
2022-11-19T09:36:13.128Z,97478.50
2022-11-19T09:38:40.794Z,97479.28
2022-11-19T09:41:13.233Z,97486.22
2022-11-19T09:44:01.378Z,97485.19
2022-11-19T09:46:43.656Z,97487.47
2022-11-19T09:49:13.831Z,97486.47
2022-11-19T09:51:46.253Z,97494.84
2022-11-19T09:54:17.562Z,97491.16
2022-11-19T09:56:51.333Z,97492.78
2022-11-19T09:59:33.181Z,97490.72
2022-11-19T10:01:59.669Z,97487.63
2022-11-19T10:04:29.750Z,97487.38
2022-11-19T10:07:06.486Z,97490.72
2022-11-19T10:10:00.492Z,97486.59
2022-11-19T10:12:33.037Z,97484.97
2022-11-19T10:15:16.269Z,97488.19
2022-11-19T10:18:11.299Z,97483.03
2022-11-19T10:21:01.367Z,97489.19
2022-11-19T10:24:00.617Z,97488.41
2022-11-19T10:26:35.033Z,97483.16
2022-11-19T10:29:03.603Z,97502.88
2022-11-19T10:31:35.926Z,97485.94
2022-11-19T10:34:07.484Z,97496.44
2022-11-19T10:36:50.438Z,97426.97
2022-11-19T10:39:23.170Z,97498.41
2022-11-19T10:41:55.468Z,97492.53
2022-11-19T10:44:47.874Z,97506.16
2022-11-19T10:47:22.771Z,97500.06
2022-11-19T10:49:58.347Z,97508.19
2022-11-19T10:52:27.906Z,97510.56
2022-11-19T10:55:00.672Z,97519.06
2022-11-19T10:57:31.542Z,97506.84
2022-11-19T10:59:58.501Z,97502.69
2022-11-19T11:02:31.765Z,97512.69
2022-11-19T11:05:03.964Z,97516.38
2022-11-19T11:07:51.327Z,97515.72
2022-11-19T11:10:27.409Z,97513.56
2022-11-19T11:13:16.629Z,97512.13
2022-11-19T11:15:50.432Z,97517.06
2022-11-19T11:18:19.126Z,97519.34
2022-11-19T11:20:51.253Z,97512.22
2022-11-19T11:23:25.215Z,97502.06
2022-11-19T11:25:59.708Z,97515.41
2022-11-19T11:28:26.185Z,97517.91
2022-11-19T11:30:55.489Z,97515.59
2022-11-19T11:33:24.909Z,97516.41
2022-11-19T11:35:54.958Z,97524.09
2022-11-19T11:38:26.961Z,97514.44
2022-11-19T11:44:02.900Z,97512.94
2022-11-19T11:46:40.878Z,97518.66
2022-11-19T11:49:20.638Z,97519.91
2022-11-19T11:51:55.008Z,97524.75
2022-11-19T11:54:22.012Z,97532.47
2022-11-19T11:56:48.490Z,97531.69
2022-11-19T11:59:23.868Z,97528.44
2022-11-19T12:02:05.624Z,97532.06
2022-11-19T12:04:32.773Z,97527.16
2022-11-19T12:07:17.531Z,97517.41
2022-11-19T12:09:43.953Z,97521.28
2022-11-19T12:12:35.827Z,97523.16
2022-11-19T12:15:16.954Z,97519.91
2022-11-19T12:17:52.673Z,97523.75
2022-11-19T12:20:39.120Z,97519.53
2022-11-19T12:23:05.588Z,97514.28
2022-11-19T12:25:41.489Z,97515.09
2022-11-19T12:28:24.066Z,97514.28
2022-11-19T12:31:11.725Z,97522.22
2022-11-19T12:34:13.453Z,97515.91
2022-11-19T12:37:08.195Z,97513.47
2022-11-19T12:40:03.921Z,97521.16
2022-11-19T12:42:52.908Z,97530.13
2022-11-19T12:45:38.045Z,97532.13
2022-11-19T12:48:55.773Z,97530.13
2022-11-19T12:51:44.524Z,97535.81
2022-11-19T12:54:48.097Z,97537.81
2022-11-19T12:57:33.300Z,97530.28
2022-11-19T13:00:05.740Z,97526.66
2022-11-19T13:02:43.678Z,97522.38
2022-11-19T13:05:26.189Z,97527.03
2022-11-19T13:07:59.143Z,97528.47
2022-11-19T13:10:32.940Z,97515.84
2022-11-19T13:13:01.089Z,97456.41
2022-11-19T13:15:39.161Z,97526.38
2022-11-19T13:18:13.959Z,97528.66
2022-11-19T13:21:01.516Z,97528.81
2022-11-19T13:23:39.439Z,97526.34
2022-11-19T13:26:11.164Z,97530.22
2022-11-19T13:28:44.188Z,97539.75
2022-11-19T13:31:28.066Z,97531.19
2022-11-19T13:34:12.748Z,97532.41
2022-11-19T13:36:47.972Z,97534.81
2022-11-19T13:39:50.569Z,97541.41
2022-11-19T13:42:39.039Z,97540.34
2022-11-19T13:45:06.813Z,97540.00
2022-11-19T13:48:25.681Z,97541.59
2022-11-19T13:50:56.887Z,97538.41
2022-11-19T13:53:41.010Z,97543.66
2022-11-19T13:56:13.922Z,97501.28
2022-11-19T13:58:47.554Z,97539.94
2022-11-19T14:01:38.459Z,97549.25
2022-11-19T14:04:40.057Z,97532.94
2022-11-19T14:07:35.906Z,97546.38
2022-11-19T14:10:10.605Z,97551.56
2022-11-19T14:12:52.140Z,97548.34
2022-11-19T14:15:56.320Z,97531.44
2022-11-19T14:18:55.854Z,97548.34
2022-11-19T14:21:43.847Z,97557.34
2022-11-19T14:24:44.114Z,97559.34
2022-11-19T14:27:34.314Z,97559.34
2022-11-19T14:30:12.410Z,97569.47
2022-11-19T14:32:48.606Z,97565.81
2022-11-19T14:35:27.097Z,97565.25
2022-11-19T14:38:13.553Z,97573.56
2022-11-19T14:40:43.649Z,97561.59
2022-11-19T14:43:35.167Z,97571.22
2022-11-19T14:46:10.404Z,97574.16
2022-11-19T14:48:39.914Z,97570.09
2022-11-19T14:51:10.719Z,97576.59
2022-11-19T14:53:48.333Z,97577.53
2022-11-19T14:56:17.077Z,97572.84
2022-11-19T14:58:53.704Z,97570.63
2022-11-19T15:01:21.862Z,97565.56
2022-11-19T15:03:53.470Z,97570.22
2022-11-19T15:06:20.826Z,97579.56
2022-11-19T15:08:58.957Z,97575.22
2022-11-19T15:11:57.424Z,97586.09
2022-11-19T15:14:29.836Z,97585.66
2022-11-19T15:16:59.482Z,97581.81
2022-11-19T15:19:38.789Z,97578.28
2022-11-19T15:22:26.636Z,97570.75
2022-11-19T15:25:09.927Z,97578.47
2022-11-19T15:27:52.245Z,97587.84
2022-11-19T15:30:42.258Z,97583.97
2022-11-19T15:33:08.695Z,97577.06
2022-11-19T15:36:02.931Z,97579.44
2022-11-19T15:38:36.973Z,97578.75
2022-11-19T15:41:05.011Z,97556.19
2022-11-19T15:43:40.100Z,97582.22
2022-11-19T15:46:21.596Z,97583.84
2022-11-19T15:49:04.549Z,97581.84
2022-11-19T15:51:53.207Z,97575.00
2022-11-19T15:54:26.750Z,97575.84
2022-11-19T15:56:57.998Z,97583.19
2022-11-19T15:59:25.326Z,97591.94
2022-11-19T16:02:03.754Z,97591.06
2022-11-19T16:04:36.360Z,97587.97
2022-11-19T16:07:05.816Z,97592.44
2022-11-19T16:09:33.118Z,97542.00
2022-11-19T16:12:19.837Z,97599.69
2022-11-19T16:15:10.061Z,97593.97
2022-11-19T16:17:46.098Z,97594.75
2022-11-19T16:20:12.579Z,97600.63
2022-11-19T16:22:53.399Z,97601.94
2022-11-19T16:25:29.231Z,97604.59
2022-11-19T16:27:58.270Z,97602.38
2022-11-19T16:30:27.909Z,97620.84
2022-11-19T16:32:59.159Z,97625.19
2022-11-19T16:35:31.566Z,97597.09
2022-11-19T16:38:00.145Z,97632.38
2022-11-19T16:40:48.113Z,97614.09
2022-11-19T16:43:15.048Z,97634.22
2022-11-19T16:45:44.861Z,97624.13
2022-11-19T16:48:51.827Z,97633.41
2022-11-19T16:51:52.642Z,97631.44
2022-11-19T16:54:48.581Z,97633.19
2022-11-19T16:57:19.681Z,97628.03
2022-11-19T16:59:52.732Z,97619.47
2022-11-19T17:02:21.677Z,97633.97
2022-11-19T17:04:50.720Z,97632.31
2022-11-19T17:07:24.569Z,97627.00
2022-11-19T17:10:08.971Z,97637.00
2022-11-19T17:12:37.100Z,97648.81
2022-11-19T17:15:42.901Z,97648.03
2022-11-19T17:18:27.229Z,97642.47
2022-11-19T17:20:58.857Z,97646.16
2022-11-19T17:23:28.248Z,97639.75
2022-11-19T17:26:00.017Z,97642.56
2022-11-19T17:28:35.919Z,97654.75
2022-11-19T17:31:06.299Z,97638.94
2022-11-19T17:33:36.579Z,97625.97
2022-11-19T17:36:03.561Z,97646.22
2022-11-19T17:38:32.276Z,97649.28
2022-11-19T17:41:01.236Z,97655.22
2022-11-19T17:43:46.389Z,97653.78
2022-11-19T17:46:12.852Z,97665.22
2022-11-19T17:48:41.136Z,97657.88
2022-11-19T17:51:11.732Z,97656.34
2022-11-19T17:53:38.129Z,97657.38
2022-11-19T17:56:05.705Z,97649.78
2022-11-19T17:58:32.177Z,97654.88
2022-11-19T18:00:58.571Z,97653.81
2022-11-19T18:03:24.994Z,97654.88
2022-11-19T18:05:51.589Z,97656.06
2022-11-19T18:08:18.158Z,97664.13
2022-11-19T18:10:47.323Z,97661.81
2022-11-19T18:13:18.951Z,97661.38
2022-11-19T18:15:45.371Z,97661.34
2022-11-19T18:18:11.772Z,97663.53
2022-11-19T18:20:38.372Z,97662.69
2022-11-19T18:23:05.021Z,97657.63
2022-11-19T18:25:31.630Z,97655.38
2022-11-19T18:27:58.037Z,97662.28
2022-11-19T18:30:24.607Z,97668.38
2022-11-19T18:32:51.078Z,97664.63
2022-11-19T18:35:19.723Z,97673.69
2022-11-19T18:37:46.547Z,97656.66
2022-11-19T18:40:14.564Z,97679.28
2022-11-19T18:43:00.662Z,97674.94
2022-11-19T18:45:27.412Z,97674.53
2022-11-19T18:47:53.833Z,97683.59
2022-11-19T18:50:20.316Z,97674.34
2022-11-19T18:52:46.801Z,97682.13
2022-11-19T18:55:13.314Z,97683.16
2022-11-19T18:57:39.774Z,97689.63
2022-11-19T19:00:07.198Z,97683.31
2022-11-19T19:02:35.810Z,97685.81
2022-11-19T19:05:02.660Z,97683.97
2022-11-19T19:07:29.082Z,97693.19
2022-11-19T19:09:55.681Z,97689.84
2022-11-19T19:12:22.263Z,97693.72
2022-11-19T19:14:51.440Z,97691.53
2022-11-19T19:17:18.555Z,97684.22
2022-11-19T19:19:45.318Z,97685.34
2022-11-19T19:22:11.909Z,97694.22
2022-11-19T19:24:38.454Z,97688.97
2022-11-19T19:27:05.309Z,97700.50
2022-11-19T19:29:31.766Z,97696.75
2022-11-19T19:31:58.493Z,97688.72
2022-11-19T19:34:25.068Z,97689.63
2022-11-19T19:36:53.640Z,97698.25
2022-11-19T19:39:20.565Z,97703.56
2022-11-19T19:41:47.180Z,97693.00
2022-11-19T19:44:13.594Z,97692.72
2022-11-19T19:46:40.164Z,97672.56
2022-11-19T19:49:06.664Z,97686.13
2022-11-19T19:51:33.088Z,97698.13
2022-11-19T19:54:00.137Z,97698.94
2022-11-19T19:56:29.329Z,97698.88
2022-11-19T19:58:57.219Z,97695.38
2022-11-19T20:01:26.418Z,97696.00
2022-11-19T20:03:54.816Z,97699.13
2022-11-19T20:06:23.509Z,97697.31
2022-11-19T20:08:50.403Z,97703.00
2022-11-19T20:11:19.457Z,97707.91
2022-11-19T20:13:47.562Z,97698.38
2022-11-19T20:16:21.777Z,97697.25
2022-11-19T20:18:49.920Z,97710.03
2022-11-19T20:21:19.868Z,97704.78
2022-11-19T20:23:47.109Z,97683.31
2022-11-19T20:26:22.150Z,97700.66
2022-11-19T20:28:53.538Z,97709.50
2022-11-19T20:31:20.650Z,97705.91
2022-11-19T20:33:52.136Z,97709.22
2022-11-19T20:36:18.655Z,97713.22
2022-11-19T20:38:47.846Z,97716.69
2022-11-19T20:41:34.481Z,97713.22
2022-11-19T20:44:20.652Z,97716.06
2022-11-19T20:46:52.690Z,97718.44
2022-11-19T20:49:21.630Z,97725.25
2022-11-19T20:51:48.381Z,97725.44
2022-11-19T20:54:15.335Z,97723.19
2022-11-19T20:56:42.183Z,97727.25
2022-11-19T20:59:09.717Z,97725.03
2022-11-19T21:01:38.760Z,97719.97
2022-11-19T21:04:05.478Z,97731.84
2022-11-19T21:06:32.434Z,97733.28
2022-11-19T21:08:58.898Z,97731.66
2022-11-19T21:11:25.456Z,97732.59
2022-11-19T21:13:52.591Z,97734.47
2022-11-19T21:16:24.655Z,97747.69
2022-11-19T21:18:52.327Z,97734.63
2022-11-19T21:21:20.962Z,97741.16
2022-11-19T21:23:47.421Z,97738.44
2022-11-19T21:26:19.810Z,97740.50
2022-11-19T21:28:49.035Z,97735.25
2022-11-19T21:31:16.857Z,97730.44
2022-11-19T21:33:43.436Z,97730.31
2022-11-19T21:36:10.188Z,97726.22
2022-11-19T21:38:36.580Z,97731.75
2022-11-19T21:41:03.714Z,97725.44
2022-11-19T21:43:30.883Z,97723.94
2022-11-19T21:45:57.566Z,97724.88
2022-11-19T21:48:25.255Z,97723.06
2022-11-19T21:50:52.606Z,97726.34
2022-11-19T21:53:19.323Z,97720.69
2022-11-19T21:55:46.383Z,97722.75
2022-11-19T21:58:14.908Z,97723.41
2022-11-19T22:00:42.384Z,97693.94
2022-11-19T22:03:08.848Z,97715.88
2022-11-19T22:05:35.615Z,97710.78
2022-11-19T22:08:02.310Z,97699.50
2022-11-19T22:10:29.719Z,97706.59
2022-11-19T22:12:59.340Z,97682.13
2022-11-19T22:15:26.895Z,97711.09
2022-11-19T22:17:53.845Z,97713.16
2022-11-19T22:20:20.360Z,97713.81
2022-11-19T22:22:46.907Z,97705.66
2022-11-19T22:25:14.337Z,97692.16
2022-11-19T22:27:41.601Z,97688.66
2022-11-19T22:30:10.243Z,97712.28
2022-11-19T22:32:37.056Z,97708.47
2022-11-19T22:35:04.801Z,97702.00
2022-11-19T22:37:31.883Z,97694.00
2022-11-19T22:39:58.391Z,97697.63
2022-11-19T22:42:24.843Z,97689.97
2022-11-19T22:44:51.592Z,97687.59
2022-11-19T22:47:18.037Z,97692.84
2022-11-19T22:49:44.530Z,97683.09
2022-11-19T22:52:10.961Z,97683.78
2022-11-19T22:54:41.448Z,97695.50
2022-11-19T22:57:08.381Z,97684.84
2022-11-19T22:59:34.946Z,97686.72
2022-11-19T23:02:01.653Z,97665.47
2022-11-19T23:04:28.926Z,97686.09
2022-11-19T23:06:55.672Z,97679.97
2022-11-19T23:09:22.576Z,97683.84
2022-11-19T23:12:08.091Z,97684.31
2022-11-19T23:14:34.469Z,97679.09
2022-11-19T23:17:00.972Z,97680.69
2022-11-19T23:19:27.367Z,97685.19
2022-11-19T23:21:53.795Z,97676.69
2022-11-19T23:24:20.332Z,97679.00
2022-11-19T23:26:46.875Z,97681.03
2022-11-19T23:29:13.345Z,97684.28
2022-11-19T23:31:40.585Z,97674.63
2022-11-19T23:34:07.835Z,97670.53
2022-11-19T23:36:37.439Z,97676.47
2022-11-19T23:39:05.387Z,97684.19
2022-11-19T23:41:33.667Z,97676.25
2022-11-19T23:44:00.962Z,97678.56
2022-11-19T23:46:29.875Z,97673.66
2022-11-19T23:48:58.045Z,97675.94
2022-11-19T23:51:35.584Z,97669.84
2022-11-19T23:54:02.784Z,97667.66
2022-11-19T23:56:31.585Z,97667.78
2022-11-19T23:59:00.450Z,97668.56
